Time;durP1;ratioP1;P1;durP2;ratioP2;P2;SDS_P1;SDS_P2;PMS_P1;PMS_P2;Temp;Humidity;BMP_temperature;BMP_pressure;BME280_temperature;BME280_humidity;BME280_pressure;Samples;Min_cycle;Max_cycle;Signal;HPM_P1;HPM_P2
2024/01/14 00:01:46;;;;;;;6.20;5.60;;;16.60;56.60;17.30;100784.00;;;;5083301;28;20275;-46
2024/01/14 00:04:12;;;;;;;7.87;5.90;;;16.50;56.50;17.30;100779.00;;;;5071036;28;20271;-47
2024/01/14 00:06:38;;;;;;;6.70;6.00;;;16.50;56.50;17.30;100774.00;;;;5070137;28;20184;-47
2024/01/14 00:09:04;;;;;;;6.70;6.10;;;16.40;56.30;17.20;100772.00;;;;5069933;28;20187;-45
2024/01/14 00:11:30;;;;;;;8.47;6.03;;;16.40;56.10;17.20;100774.00;;;;5069610;28;20577;-46
2024/01/14 00:13:55;;;;;;;7.50;6.63;;;16.40;56.10;17.20;100767.00;;;;5069608;28;20213;-46
2024/01/14 00:16:21;;;;;;;6.53;5.93;;;16.30;55.90;17.10;100774.00;;;;5069611;28;20186;-46
2024/01/14 00:18:47;;;;;;;7.60;6.83;;;16.30;55.80;17.10;100775.00;;;;5069727;28;20549;-46
2024/01/14 00:21:13;;;;;;;7.17;6.57;;;16.30;55.80;17.10;100768.00;;;;5069597;28;20281;-46
2024/01/14 00:23:39;;;;;;;7.50;6.80;;;16.30;55.80;17.10;100782.00;;;;5044192;28;20180;-46
2024/01/14 00:26:04;;;;;;;7.73;7.00;;;16.20;55.80;17.00;100772.00;;;;5069593;28;20196;-46
2024/01/14 00:28:30;;;;;;;7.43;6.73;;;16.20;55.80;17.00;100770.00;;;;5069364;28;20175;-46
2024/01/14 00:30:56;;;;;;;7.77;7.07;;;16.10;55.70;17.00;100772.00;;;;5069297;28;20185;-46
2024/01/14 00:33:21;;;;;;;8.13;7.40;;;16.10;55.60;17.00;100772.00;;;;5069406;28;20705;-46
2024/01/14 00:35:47;;;;;;;8.33;7.60;;;16.10;55.50;16.90;100778.00;;;;5069479;28;20313;-46
2024/01/14 00:38:15;;;;;;;8.60;7.80;;;16.10;55.40;16.90;100772.00;;;;5069522;28;20178;-46
2024/01/14 00:40:40;;;;;;;8.43;7.63;;;16.10;55.40;16.90;100763.00;;;;5069172;28;20181;-46
2024/01/14 00:43:06;;;;;;;8.80;8.03;;;16.10;55.30;16.90;100765.00;;;;5065845;28;20176;-46
2024/01/14 00:45:32;;;;;;;10.33;8.43;;;16.00;55.20;16.90;100758.00;;;;5065627;28;20283;-45
2024/01/14 00:47:58;;;;;;;8.50;7.70;;;16.00;55.20;16.90;100749.00;;;;5069128;28;20653;-46
2024/01/14 00:50:23;;;;;;;8.53;7.80;;;16.00;55.10;16.90;100758.00;;;;5069022;28;20171;-46
2024/01/14 00:52:49;;;;;;;8.93;8.13;;;15.90;55.10;16.90;100752.00;;;;5069418;28;20212;-46
2024/01/14 00:55:15;;;;;;;8.67;7.87;;;16.00;55.10;16.90;100749.00;;;;5047018;28;20195;-46
2024/01/14 00:57:40;;;;;;;8.73;7.93;;;15.90;55.20;16.90;100748.00;;;;5069115;28;20177;-45
2024/01/14 01:00:09;;;;;;;8.67;7.87;;;15.90;55.20;16.80;100738.00;;;;5068995;28;20692;-45
2024/01/14 01:02:35;;;;;;;8.60;7.87;;;15.90;55.20;16.80;100730.00;;;;5068083;28;20173;-46
2024/01/14 01:05:02;;;;;;;8.80;7.90;;;15.90;55.00;16.80;100729.00;;;;5067856;28;20210;-46
2024/01/14 01:07:28;;;;;;;9.13;8.30;;;15.90;55.00;16.80;100722.00;;;;5068275;28;20190;-46
2024/01/14 01:09:54;;;;;;;9.00;8.20;;;15.90;55.00;16.80;100710.00;;;;5051221;28;20170;-45
2024/01/14 01:12:19;;;;;;;9.40;8.50;;;15.80;54.90;16.80;100707.00;;;;5062673;28;20682;-47
2024/01/14 01:14:47;;;;;;;8.27;7.53;;;15.80;54.90;16.80;100701.00;;;;5068152;28;20186;-47
2024/01/14 01:17:13;;;;;;;8.70;7.90;;;15.80;54.90;16.80;100702.00;;;;5068931;28;20192;-46
2024/01/14 01:19:39;;;;;;;9.37;8.50;;;15.80;54.90;16.80;100694.00;;;;5068760;28;20171;-46
2024/01/14 01:22:04;;;;;;;8.70;7.90;;;15.70;54.90;16.70;100697.00;;;;5045551;28;20543;-46
2024/01/14 01:24:30;;;;;;;8.80;7.90;;;15.70;54.90;16.70;100701.00;;;;5066726;28;20566;-45
2024/01/14 01:26:56;;;;;;;8.87;8.07;;;15.70;55.00;16.70;100708.00;;;;5068766;28;20252;-46
2024/01/14 01:29:22;;;;;;;9.00;8.20;;;15.70;55.10;16.70;100698.00;;;;5068677;28;20182;-46
2024/01/14 01:31:47;;;;;;;8.87;8.07;;;15.70;55.00;16.70;100702.00;;;;5067803;28;20244;-46
2024/01/14 01:34:13;;;;;;;9.27;8.30;;;15.60;54.90;16.70;100701.00;;;;5068698;28;20177;-46
2024/01/14 01:36:40;;;;;;;9.10;8.30;;;15.60;55.00;16.60;100688.00;;;;5071991;28;20688;-45
2024/01/14 01:39:05;;;;;;;8.90;8.10;;;15.60;54.90;16.60;100697.00;;;;5071844;28;20171;-45
2024/01/14 01:41:31;;;;;;;8.97;8.07;;;15.70;56.00;16.60;100692.00;;;;5071631;28;20179;-45
2024/01/14 01:43:57;;;;;;;9.70;8.80;;;15.60;56.00;16.60;100697.00;;;;5069689;28;20223;-46
2024/01/14 01:46:22;;;;;;;9.00;8.20;;;15.60;55.60;16.60;100697.00;;;;5070970;28;20260;-45
2024/01/14 01:48:48;;;;;;;9.47;8.47;;;15.60;55.30;16.60;100693.00;;;;5043651;28;20225;-45
2024/01/14 01:51:14;;;;;;;9.10;8.30;;;15.50;55.10;16.50;100667.00;;;;5071621;28;20173;-46
2024/01/14 01:53:40;;;;;;;9.50;8.70;;;15.50;55.10;16.50;100675.00;;;;5045363;28;20645;-45
2024/01/14 01:56:06;;;;;;;9.53;8.63;;;15.50;55.10;16.50;100679.00;;;;5040086;28;20186;-46
2024/01/14 01:58:31;;;;;;;9.37;8.50;;;15.50;55.20;16.50;100687.00;;;;5074922;28;20182;-47
2024/01/14 02:00:57;;;;;;;9.60;8.70;;;15.50;55.10;16.50;100675.00;;;;5046247;28;20162;-46
2024/01/14 02:03:23;;;;;;;9.30;8.50;;;15.50;55.00;16.50;100676.00;;;;5071489;28;20512;-46
2024/01/14 02:05:49;;;;;;;10.03;9.13;;;15.50;55.00;16.40;100602.00;;;;5046255;28;20279;-46
2024/01/14 02:08:14;;;;;;;9.97;8.97;;;15.50;55.00;16.40;100657.00;;;;5043067;28;20657;-45
2024/01/14 02:10:40;;;;;;;9.43;8.63;;;15.40;55.00;16.40;100660.00;;;;5036680;28;20261;-45
2024/01/14 02:13:06;;;;;;;9.50;8.60;;;15.40;54.90;16.40;100664.00;;;;5071919;28;20307;-46
2024/01/14 02:15:32;;;;;;;9.03;8.23;;;15.40;54.80;16.40;100653.00;;;;5080626;28;20585;-46
2024/01/14 02:17:57;;;;;;;9.40;8.50;;;15.40;54.80;16.40;100636.00;;;;5073847;28;20219;-47
2024/01/14 02:20:23;;;;;;;10.30;9.33;;;15.40;54.80;16.30;100650.00;;;;5071045;28;20252;-45
2024/01/14 02:22:49;;;;;;;9.50;8.60;;;15.40;54.80;16.30;100650.00;;;;5071126;28;20173;-45
2024/01/14 02:25:15;;;;;;;9.17;8.37;;;15.40;54.80;16.30;100650.00;;;;5045323;28;20864;-46
2024/01/14 02:27:40;;;;;;;9.73;8.93;;;15.40;54.80;16.30;100640.00;;;;5042626;28;20178;-45
2024/01/14 02:30:09;;;;;;;8.87;8.10;;;15.40;54.70;16.30;100636.00;;;;5070472;28;20829;-45
2024/01/14 02:32:38;;;;;;;9.93;9.03;;;15.30;54.70;16.30;100651.00;;;;5068891;28;20213;-45
2024/01/14 02:35:08;;;;;;;9.60;8.60;;;15.30;54.80;16.30;100644.00;;;;5070694;28;20742;-45
2024/01/14 02:37:43;;;;;;;8.70;7.90;;;15.30;54.70;16.20;100636.00;;;;5070836;28;20174;-45
2024/01/14 02:40:10;;;;;;;9.80;8.90;;;15.30;54.80;16.20;100638.00;;;;5065823;28;20741;-45
2024/01/14 02:42:36;;;;;;;9.13;8.33;;;15.20;54.70;16.20;100630.00;;;;5071025;28;20198;-46
2024/01/14 02:45:02;;;;;;;9.27;8.47;;;15.30;54.70;16.20;100621.00;;;;5065653;28;20201;-46
2024/01/14 02:47:28;;;;;;;9.93;9.00;;;15.20;54.60;16.20;100626.00;;;;5069738;28;20204;-47
2024/01/14 02:49:54;;;;;;;9.60;8.70;;;15.30;54.70;16.20;100621.00;;;;5070513;28;20178;-45
2024/01/14 02:52:20;;;;;;;9.60;8.70;;;15.30;54.60;16.20;100618.00;;;;5070409;28;20193;-45
2024/01/14 02:54:45;;;;;;;9.63;8.70;;;15.20;54.90;16.20;100619.00;;;;5070486;28;20251;-45
2024/01/14 02:57:11;;;;;;;8.83;8.03;;;15.10;55.20;16.10;100615.00;;;;5070747;28;20177;-44
2024/01/14 02:59:37;;;;;;;9.90;9.03;;;15.10;55.60;16.10;100621.00;;;;5046190;28;20560;-45
2024/01/14 03:02:03;;;;;;;8.87;8.13;;;15.10;55.50;16.10;100610.00;;;;5065099;28;20608;-44
2024/01/14 03:04:29;;;;;;;9.03;8.23;;;15.00;55.50;16.10;100611.00;;;;5070837;28;20258;-46
2024/01/14 03:06:55;;;;;;;9.13;8.23;;;15.00;55.30;16.10;100613.00;;;;5071450;28;20706;-46
2024/01/14 03:09:21;;;;;;;9.07;8.30;;;15.00;55.40;16.10;100609.00;;;;5070981;28;20639;-45
2024/01/14 03:11:47;;;;;;;9.17;8.37;;;15.00;55.30;16.10;100601.00;;;;5071079;28;20319;-46
2024/01/14 03:14:13;;;;;;;9.60;8.80;;;15.00;55.20;16.10;100598.00;;;;5070847;28;20225;-46
2024/01/14 03:16:38;;;;;;;8.97;8.17;;;15.00;55.30;16.00;100606.00;;;;5071265;28;20204;-46
2024/01/14 03:19:04;;;;;;;9.60;8.73;;;15.00;55.30;16.00;100608.00;;;;5071306;28;20618;-46
2024/01/14 03:21:30;;;;;;;9.03;8.23;;;14.90;55.30;16.00;100599.00;;;;5069743;28;20661;-46
2024/01/14 03:23:56;;;;;;;9.33;8.47;;;14.90;55.30;16.00;100580.00;;;;5068792;28;20177;-45
2024/01/14 03:26:22;;;;;;;9.43;8.53;;;14.90;55.20;16.00;100593.00;;;;5045844;28;20449;-45
2024/01/14 03:28:48;;;;;;;8.70;7.90;;;14.90;55.20;16.00;100595.00;;;;5069890;28;20180;-46
2024/01/14 03:31:16;;;;;;;9.37;8.57;;;14.90;55.00;16.00;100594.00;;;;5069743;28;20170;-45
2024/01/14 03:33:43;;;;;;;9.00;8.20;;;14.90;54.80;15.90;100595.00;;;;5069583;28;20176;-45
2024/01/14 03:36:12;;;;;;;9.47;8.67;;;14.90;54.60;15.90;100593.00;;;;5069486;28;20194;-46
2024/01/14 03:38:38;;;;;;;9.50;8.70;;;14.90;54.60;15.90;100582.00;;;;5046238;28;20249;-45
2024/01/14 03:41:04;;;;;;;9.13;8.27;;;14.90;54.60;15.90;100581.00;;;;5054356;28;20256;-45
2024/01/14 03:43:29;;;;;;;8.90;8.10;;;14.90;54.60;15.90;100593.00;;;;5044158;28;20190;-45
2024/01/14 03:45:55;;;;;;;9.23;8.43;;;14.90;54.70;15.90;100587.00;;;;5051520;28;20209;-45
2024/01/14 03:48:21;;;;;;;9.67;8.77;;;14.90;54.70;15.90;100593.00;;;;5069344;28;20189;-46
2024/01/14 03:50:47;;;;;;;8.90;8.10;;;14.80;54.60;15.80;100586.00;;;;5069608;28;20178;-45
2024/01/14 03:53:13;;;;;;;9.13;8.33;;;14.90;54.60;15.80;100583.00;;;;5069510;28;20206;-46
2024/01/14 03:55:38;;;;;;;9.30;8.40;;;14.80;54.60;15.80;100579.00;;;;5069367;28;20611;-45
2024/01/14 03:58:04;;;;;;;8.93;8.13;;;14.80;54.60;15.80;100575.00;;;;5068239;28;20178;-46
2024/01/14 04:00:30;;;;;;;9.20;8.40;;;14.80;54.60;15.80;100572.00;;;;5070601;28;20169;-47
2024/01/14 04:02:56;;;;;;;9.37;8.47;;;14.80;54.60;15.80;100567.00;;;;5066205;28;20173;-45
2024/01/14 04:05:22;;;;;;;8.87;8.07;;;14.80;54.60;15.70;100569.00;;;;5069870;28;20193;-45
2024/01/14 04:07:49;;;;;;;9.30;8.50;;;14.80;54.60;15.70;100564.00;;;;5070211;28;20177;-44
2024/01/14 04:10:16;;;;;;;8.53;7.83;;;14.80;54.60;15.70;100565.00;;;;5070033;28;20169;-45
2024/01/14 04:12:42;;;;;;;9.23;8.43;;;14.80;54.60;15.70;100557.00;;;;5067659;28;20572;-44
2024/01/14 04:15:08;;;;;;;8.50;7.73;;;14.80;54.60;15.70;100556.00;;;;5067598;28;20198;-45
2024/01/14 04:17:34;;;;;;;8.40;7.70;;;14.80;54.60;15.70;100553.00;;;;5067800;28;20162;-45
2024/01/14 04:20:00;;;;;;;8.97;8.17;;;14.70;54.50;15.60;100556.00;;;;5069832;28;20170;-45
2024/01/14 04:22:26;;;;;;;9.10;8.30;;;14.70;54.50;15.60;100548.00;;;;5052361;28;20170;-45
2024/01/14 04:24:51;;;;;;;9.30;8.40;;;14.70;54.50;15.60;100553.00;;;;5066554;28;20667;-45
2024/01/14 04:27:17;;;;;;;9.17;8.33;;;14.70;54.50;15.60;100558.00;;;;5070029;28;20182;-44
2024/01/14 04:29:43;;;;;;;9.33;8.50;;;14.60;55.80;15.60;100548.00;;;;5074895;28;20170;-46
2024/01/14 04:32:08;;;;;;;9.97;9.07;;;14.60;55.80;15.60;100549.00;;;;5046883;28;20193;-46
2024/01/14 04:34:34;;;;;;;9.37;8.43;;;14.70;55.10;15.60;100545.00;;;;5045593;28;20304;-45
2024/01/14 04:37:00;;;;;;;12.97;8.57;;;14.70;55.30;15.60;100542.00;;;;5049107;28;20173;-48
2024/01/14 04:39:26;;;;;;;8.70;7.90;;;14.70;55.30;15.60;100542.00;;;;5069551;28;20181;-44
2024/01/14 04:41:52;;;;;;;8.77;7.97;;;14.70;55.40;15.60;100539.00;;;;5070974;28;20172;-45
2024/01/14 04:44:18;;;;;;;7.63;6.77;;;14.70;55.50;15.60;100536.00;;;;5060450;28;20242;-45
2024/01/14 04:46:44;;;;;;;8.27;7.47;;;14.80;55.40;15.60;100529.00;;;;5045798;28;20181;-45
2024/01/14 04:49:10;;;;;;;7.30;6.60;;;14.80;55.30;15.60;100536.00;;;;5070050;28;20184;-46
2024/01/14 04:51:36;;;;;;;7.77;6.53;;;14.90;55.30;15.70;100524.00;;;;5069050;28;20202;-45
2024/01/14 04:54:02;;;;;;;6.53;6.00;;;15.00;55.20;15.80;100527.00;;;;5041934;28;20189;-45
2024/01/14 04:56:28;;;;;;;6.17;5.63;;;15.10;55.00;15.80;100527.00;;;;5070503;28;20748;-45
2024/01/14 04:58:54;;;;;;;6.00;5.40;;;15.30;55.00;15.90;100521.00;;;;5042203;28;20249;-45
2024/01/14 05:01:20;;;;;;;5.93;5.30;;;15.40;54.90;16.00;100518.00;;;;5069902;28;20178;-45
2024/01/14 05:03:46;;;;;;;8.30;5.30;;;15.50;54.70;16.10;100523.00;;;;5067366;28;20170;-46
2024/01/14 05:06:11;;;;;;;6.07;5.47;;;15.60;54.60;16.20;100524.00;;;;5069788;28;20194;-46
2024/01/14 05:08:39;;;;;;;5.67;5.17;;;15.60;54.40;16.20;100518.00;;;;5070012;28;20182;-46
2024/01/14 05:11:05;;;;;;;5.80;5.30;;;15.70;54.40;16.30;100511.00;;;;5068904;28;20173;-45
2024/01/14 05:13:31;;;;;;;6.43;5.00;;;15.80;54.40;16.40;100506.00;;;;5069033;28;20220;-45
2024/01/14 05:15:57;;;;;;;5.60;5.07;;;15.80;54.50;16.40;100506.00;;;;5068840;28;20189;-45
2024/01/14 05:18:22;;;;;;;8.53;4.90;;;15.80;54.60;16.50;100515.00;;;;5068724;28;20182;-45
2024/01/14 05:20:48;;;;;;;5.47;4.63;;;15.90;54.90;16.50;100513.00;;;;5068514;28;20192;-45
2024/01/14 05:23:14;;;;;;;5.50;4.60;;;15.90;55.00;16.50;100517.00;;;;5069227;28;20189;-45
2024/01/14 05:25:40;;;;;;;7.03;4.60;;;16.00;55.10;16.60;100505.00;;;;5068736;28;20208;-45
2024/01/14 05:28:05;;;;;;;6.67;4.60;;;16.00;55.30;16.60;100511.00;;;;5068842;28;20551;-45
2024/01/14 05:30:31;;;;;;;5.10;4.60;;;16.00;55.30;16.60;100504.00;;;;5045075;28;20185;-45
2024/01/14 05:32:57;;;;;;;5.73;4.67;;;16.00;55.40;16.70;100504.00;;;;5069064;28;20201;-45
2024/01/14 05:35:22;;;;;;;7.37;4.50;;;16.00;55.40;16.70;100510.00;;;;5043038;28;20198;-45
2024/01/14 05:37:48;;;;;;;5.80;4.97;;;16.00;55.50;16.70;100500.00;;;;5069053;28;20174;-45
2024/01/14 05:40:14;;;;;;;7.17;4.20;;;16.00;55.50;16.70;100501.00;;;;5068741;28;20175;-45
2024/01/14 05:42:40;;;;;;;4.90;4.40;;;16.00;55.50;16.70;100497.00;;;;5068972;28;20192;-45
2024/01/14 05:45:07;;;;;;;6.10;4.77;;;16.00;55.50;16.70;100488.00;;;;5062825;28;20205;-45
2024/01/14 05:47:33;;;;;;;5.67;4.13;;;16.10;55.60;16.70;100489.00;;;;5045448;28;20192;-46
2024/01/14 05:50:00;;;;;;;6.60;4.20;;;16.10;55.70;16.80;100491.00;;;;5040201;28;20280;-45
2024/01/14 05:52:26;;;;;;;5.73;4.30;;;16.10;55.60;16.80;100484.00;;;;5065784;28;20205;-45
2024/01/14 05:54:52;;;;;;;5.20;3.60;;;16.10;55.60;16.80;100479.00;;;;5040554;28;20193;-46
2024/01/14 05:57:17;;;;;;;4.37;3.97;;;16.10;55.70;16.80;100483.00;;;;5068670;28;20181;-45
2024/01/14 05:59:43;;;;;;;5.73;4.23;;;16.00;55.90;16.80;100484.00;;;;5068138;28;20231;-46
2024/01/14 06:02:09;;;;;;;4.43;4.03;;;16.00;55.90;16.80;100484.00;;;;5064723;28;20182;-45
2024/01/14 06:04:35;;;;;;;6.37;4.00;;;16.00;56.00;16.80;100481.00;;;;5082553;28;20708;-46
2024/01/14 06:07:01;;;;;;;5.17;4.20;;;16.00;56.00;16.80;100484.00;;;;5068482;28;20179;-46
2024/01/14 06:09:26;;;;;;;5.40;4.30;;;16.00;56.20;16.80;100476.00;;;;5068359;28;20189;-46
2024/01/14 06:11:52;;;;;;;4.40;3.87;;;16.00;56.30;16.70;100467.00;;;;5039533;28;20222;-45
2024/01/14 06:14:18;;;;;;;5.17;3.93;;;16.00;56.20;16.70;100472.00;;;;5063740;28;20236;-45
2024/01/14 06:16:44;;;;;;;8.30;4.07;;;15.90;56.20;16.70;100466.00;;;;5067277;28;20771;-46
2024/01/14 06:19:10;;;;;;;7.10;3.77;;;15.90;56.20;16.70;100473.00;;;;5068241;28;20192;-47
2024/01/14 06:21:42;;;;;;;4.40;3.67;;;15.90;56.20;16.70;100464.00;;;;5061140;28;20588;-45
2024/01/14 06:24:17;;;;;;;5.93;4.07;;;15.90;56.30;16.70;100451.00;;;;5055510;28;20175;-47
2024/01/14 06:26:43;;;;;;;4.10;3.70;;;15.90;56.40;16.70;100465.00;;;;5068732;28;20170;-45
2024/01/14 06:29:09;;;;;;;4.93;4.07;;;15.90;56.40;16.60;100464.00;;;;5066311;28;20656;-45
2024/01/14 06:31:35;;;;;;;4.27;3.97;;;15.90;56.50;16.60;100460.00;;;;5070944;28;20178;-45
2024/01/14 06:34:00;;;;;;;4.57;3.77;;;15.80;56.50;16.60;100456.00;;;;5071650;28;20185;-45
2024/01/14 06:36:26;;;;;;;4.67;3.83;;;15.80;56.50;16.60;100462.00;;;;5071726;28;20232;-45
2024/01/14 06:38:52;;;;;;;5.43;3.83;;;15.80;56.50;16.60;100452.00;;;;5071676;28;20169;-45
2024/01/14 06:41:25;;;;;;;3.90;3.60;;;15.70;56.50;16.50;100460.00;;;;5071545;28;20173;-45
2024/01/14 06:43:50;;;;;;;4.70;4.20;;;15.70;56.50;16.50;100449.00;;;;5065142;28;20500;-45
2024/01/14 06:46:16;;;;;;;5.03;4.10;;;15.70;56.50;16.50;100453.00;;;;5035599;28;20254;-45
2024/01/14 06:48:42;;;;;;;4.60;4.20;;;15.60;56.40;16.50;100437.00;;;;5070546;28;20185;-46
2024/01/14 06:51:08;;;;;;;4.30;3.90;;;15.70;56.60;16.50;100441.00;;;;5072264;28;20186;-45
2024/01/14 06:53:33;;;;;;;4.43;4.00;;;15.60;56.50;16.40;100432.00;;;;5076985;28;20208;-46
2024/01/14 06:56:00;;;;;;;4.30;3.90;;;15.60;56.60;16.40;100437.00;;;;5072211;28;20572;-46
2024/01/14 06:58:26;;;;;;;4.20;3.80;;;15.60;56.60;16.40;100434.00;;;;5073142;28;20758;-46
2024/01/14 07:00:52;;;;;;;4.77;3.90;;;15.60;56.60;16.40;100432.00;;;;5067803;28;20170;-46
2024/01/14 07:03:18;;;;;;;3.90;3.60;;;15.60;56.70;16.40;100433.00;;;;5070788;28;20189;-46
2024/01/14 07:05:43;;;;;;;4.30;3.80;;;15.50;56.60;16.30;100422.00;;;;5070901;28;20198;-46
2024/01/14 07:08:09;;;;;;;5.43;3.87;;;15.50;56.60;16.30;100424.00;;;;5071082;28;20604;-46
2024/01/14 07:10:35;;;;;;;4.30;3.90;;;15.50;56.70;16.30;100414.00;;;;5070996;28;20560;-46
2024/01/14 07:13:01;;;;;;;4.20;3.80;;;15.50;56.70;16.30;100407.00;;;;5041486;28;20193;-45
2024/01/14 07:15:27;;;;;;;4.00;3.70;;;15.40;56.60;16.30;100408.00;;;;5047259;28;20596;-45
2024/01/14 07:17:52;;;;;;;4.03;3.73;;;15.50;56.70;16.20;100415.00;;;;5070631;28;20173;-45
2024/01/14 07:20:18;;;;;;;3.93;3.63;;;15.50;56.70;16.20;100404.00;;;;5070651;28;20178;-46
2024/01/14 07:22:45;;;;;;;3.90;3.60;;;15.40;56.70;16.20;100408.00;;;;5046844;28;20211;-45
2024/01/14 07:25:11;;;;;;;3.80;3.50;;;15.40;56.70;16.20;100403.00;;;;5070683;28;20209;-45
2024/01/14 07:27:37;;;;;;;3.37;3.13;;;15.40;56.60;16.20;100415.00;;;;5070304;28;20564;-45
2024/01/14 07:30:05;;;;;;;3.50;3.20;;;15.40;56.80;16.10;100403.00;;;;5070423;28;20264;-46
2024/01/14 07:32:30;;;;;;;3.70;3.40;;;15.40;56.80;16.10;100414.00;;;;5070169;28;20220;-45
2024/01/14 07:34:57;;;;;;;4.07;3.73;;;15.40;56.80;16.10;100424.00;;;;5070660;28;20584;-46
2024/01/14 07:37:23;;;;;;;4.10;3.80;;;15.40;56.80;16.20;100416.00;;;;5070627;28;20181;-46
2024/01/14 07:39:49;;;;;;;3.63;3.33;;;15.50;56.90;16.20;100409.00;;;;5053268;28;20176;-46
2024/01/14 07:42:16;;;;;;;3.80;3.50;;;15.50;56.80;16.20;100423.00;;;;5060459;28;20197;-46
2024/01/14 07:44:41;;;;;;;3.40;3.10;;;15.50;56.60;16.30;100429.00;;;;5065591;28;20724;-45
2024/01/14 07:47:07;;;;;;;4.40;3.40;;;15.60;56.70;16.30;100428.00;;;;5070762;28;20208;-45
2024/01/14 07:49:33;;;;;;;3.53;3.23;;;15.60;56.50;16.30;100414.00;;;;5070172;28;20269;-44
2024/01/14 07:51:59;;;;;;;3.30;3.00;;;15.70;56.50;16.30;100341.00;;;;5069210;28;20743;-46
2024/01/14 07:54:25;;;;;;;3.47;3.20;;;15.70;56.50;16.40;100422.00;;;;5069448;28;20194;-45
2024/01/14 07:56:51;;;;;;;3.30;3.10;;;15.70;56.40;16.40;100426.00;;;;5051225;28;20212;-46
2024/01/14 07:59:20;;;;;;;3.23;3.03;;;15.70;56.50;16.40;100413.00;;;;5059742;28;20178;-45
2024/01/14 08:01:46;;;;;;;3.30;3.00;;;15.70;56.40;16.40;100411.00;;;;5049795;28;20185;-45
2024/01/14 08:04:11;;;;;;;3.60;3.30;;;15.70;56.40;16.40;100415.00;;;;5067310;28;20185;-44
2024/01/14 08:06:37;;;;;;;3.33;3.13;;;15.80;56.40;16.50;100406.00;;;;5071472;28;20182;-45
2024/01/14 08:09:03;;;;;;;3.10;2.90;;;15.80;56.40;16.50;100410.00;;;;5063947;28;20321;-46
2024/01/14 08:11:29;;;;;;;3.20;3.00;;;15.80;56.40;16.50;100416.00;;;;5061010;28;20179;-45
2024/01/14 08:13:54;;;;;;;3.10;2.90;;;15.70;56.40;16.50;100415.00;;;;5068806;28;20174;-46
2024/01/14 08:16:20;;;;;;;3.40;3.10;;;15.80;56.40;16.50;100415.00;;;;5068843;28;20599;-45
2024/01/14 08:18:46;;;;;;;3.40;3.10;;;15.80;56.50;16.50;100409.00;;;;5063545;28;20240;-45
2024/01/14 08:21:12;;;;;;;3.00;2.80;;;15.80;56.50;16.50;100411.00;;;;5068810;28;20216;-45
2024/01/14 08:23:37;;;;;;;3.17;2.87;;;15.80;56.50;16.50;100415.00;;;;5070304;28;20656;-45
2024/01/14 08:26:03;;;;;;;3.00;2.80;;;15.80;56.60;16.50;100418.00;;;;5069362;28;20279;-44
2024/01/14 08:28:34;;;;;;;3.10;2.90;;;15.80;56.60;16.50;100428.00;;;;5069340;28;20183;-44
2024/01/14 08:31:00;;;;;;;3.30;3.10;;;15.80;56.50;16.50;100421.00;;;;5069041;28;20186;-46
2024/01/14 08:33:27;;;;;;;3.10;2.90;;;15.80;56.50;16.50;100416.00;;;;5069571;28;20201;-46
2024/01/14 08:35:54;;;;;;;3.10;2.90;;;15.80;56.50;16.60;100419.00;;;;5065794;28;20207;-46
2024/01/14 08:38:20;;;;;;;2.90;2.70;;;15.80;56.60;16.60;100410.00;;;;5069387;28;20186;-46
2024/01/14 08:40:46;;;;;;;3.03;2.73;;;15.80;56.60;16.60;100415.00;;;;5069341;28;20756;-46
2024/01/14 08:43:12;;;;;;;3.10;2.90;;;15.80;56.60;16.60;100407.00;;;;5044443;28;20190;-46
2024/01/14 08:45:38;;;;;;;3.40;3.10;;;15.80;56.60;16.50;100409.00;;;;5066674;28;20277;-46
2024/01/14 08:48:07;;;;;;;3.10;2.90;;;15.80;56.70;16.50;100405.00;;;;5068927;28;20178;-46
2024/01/14 08:50:33;;;;;;;2.70;2.50;;;15.80;56.80;16.50;100409.00;;;;5030191;28;20265;-47
2024/01/14 08:52:59;;;;;;;3.37;2.80;;;15.80;56.70;16.50;100415.00;;;;5074962;28;20284;-46
2024/01/14 08:55:25;;;;;;;2.83;2.63;;;15.80;56.80;16.50;100409.00;;;;5074907;28;20641;-46
2024/01/14 08:57:50;;;;;;;2.80;2.60;;;15.80;56.70;16.50;100405.00;;;;5074944;28;20184;-47
2024/01/14 09:00:16;;;;;;;2.80;2.60;;;15.80;56.70;16.50;100402.00;;;;5077362;28;20192;-51
2024/01/14 09:02:42;;;;;;;4.30;3.00;;;15.80;56.70;16.50;100411.00;;;;5069197;28;20174;-46
2024/01/14 09:05:08;;;;;;;2.80;2.60;;;15.80;56.70;16.50;100411.00;;;;5044383;28;20194;-45
2024/01/14 09:07:33;;;;;;;2.80;2.60;;;15.80;56.70;16.60;100404.00;;;;5066948;28;20185;-46
2024/01/14 09:09:59;;;;;;;3.20;2.90;;;15.80;56.80;16.50;100387.00;;;;5065324;28;20177;-45
2024/01/14 09:12:25;;;;;;;2.97;2.77;;;15.80;56.80;16.50;100403.00;;;;5081555;28;20276;-45
2024/01/14 09:14:51;;;;;;;3.00;2.70;;;15.80;56.70;16.60;100399.00;;;;5068308;28;20269;-46
2024/01/14 09:17:17;;;;;;;2.80;2.60;;;15.80;56.70;16.60;100395.00;;;;5068647;28;20173;-45
2024/01/14 09:19:44;;;;;;;2.80;2.60;;;15.80;56.70;16.60;100416.00;;;;5068313;28;20235;-46
2024/01/14 09:22:10;;;;;;;2.60;2.40;;;15.80;56.70;16.60;100403.00;;;;5068823;28;20255;-46
2024/01/14 09:24:35;;;;;;;3.47;2.77;;;15.80;56.70;16.60;100418.00;;;;5065107;28;20209;-46
2024/01/14 09:27:03;;;;;;;2.83;2.63;;;15.80;56.70;16.60;100406.00;;;;5063409;28;20310;-46
2024/01/14 09:29:29;;;;;;;2.80;2.60;;;15.80;56.70;16.60;100405.00;;;;5068379;28;20204;-46
2024/01/14 09:31:55;;;;;;;2.43;2.30;;;15.80;56.80;16.60;100413.00;;;;5068545;28;20462;-46
2024/01/14 09:34:21;;;;;;;2.80;2.60;;;15.80;56.80;16.60;100411.00;;;;5066706;28;20673;-45
2024/01/14 09:36:46;;;;;;;3.23;2.80;;;15.80;56.80;16.60;100407.00;;;;5068141;28;20170;-46
2024/01/14 09:39:13;;;;;;;4.10;2.60;;;15.80;56.80;16.50;100398.00;;;;5063993;28;20182;-46
2024/01/14 09:41:54;;;;;;;2.73;2.53;;;15.80;56.90;16.50;100402.00;;;;5066694;28;20532;-45
2024/01/14 09:44:20;;;;;;;2.80;2.60;;;15.80;56.80;16.50;100395.00;;;;5046479;28;20231;-45
2024/01/14 09:46:46;;;;;;;2.83;2.57;;;15.80;56.80;16.60;100397.00;;;;5044714;28;20209;-46
2024/01/14 09:49:12;;;;;;;2.67;2.47;;;15.80;56.80;16.60;100395.00;;;;5036820;28;20250;-45
2024/01/14 09:51:38;;;;;;;2.80;2.60;;;15.80;56.90;16.60;100393.00;;;;5066632;28;20264;-45
2024/01/14 09:54:03;;;;;;;4.07;2.70;;;15.80;56.80;16.60;100389.00;;;;5041255;28;20677;-45
2024/01/14 09:56:32;;;;;;;2.67;2.47;;;15.80;57.10;16.60;100394.00;;;;5033198;28;20181;-47
2024/01/14 09:58:57;;;;;;;4.03;2.50;;;15.80;57.20;16.60;100398.00;;;;5061015;28;20192;-45
2024/01/14 10:01:23;;;;;;;3.83;2.73;;;15.80;57.50;16.60;100393.00;;;;5077521;28;20540;-44
2024/01/14 10:03:50;;;;;;;4.80;2.70;;;15.80;57.50;16.60;100398.00;;;;5036627;28;20165;-46
2024/01/14 10:06:15;;;;;;;4.27;2.80;;;15.90;57.70;16.60;100404.00;;;;5048946;28;20248;-45
2024/01/14 10:08:41;;;;;;;2.93;2.73;;;15.90;57.80;16.60;100388.00;;;;5070830;28;20174;-45
2024/01/14 10:11:07;;;;;;;2.83;2.60;;;16.00;57.60;16.70;100394.00;;;;5062515;28;20223;-46
2024/01/14 10:13:33;;;;;;;4.53;2.70;;;16.10;57.50;16.70;100392.00;;;;5071181;28;20251;-46
2024/01/14 10:15:59;;;;;;;2.60;2.40;;;16.20;57.20;16.80;100389.00;;;;5048383;28;20193;-46
2024/01/14 10:18:25;;;;;;;4.10;2.60;;;16.30;57.00;16.90;100386.00;;;;5070276;28;20178;-45
2024/01/14 10:20:51;;;;;;;2.80;2.60;;;16.40;56.70;17.00;100377.00;;;;5070114;28;20194;-46
2024/01/14 10:23:17;;;;;;;3.20;2.50;;;16.50;56.50;17.10;100381.00;;;;5048715;28;20174;-46
2024/01/14 10:25:43;;;;;;;2.53;2.33;;;16.70;56.40;17.20;100369.00;;;;5071873;28;20194;-46
2024/01/14 10:28:09;;;;;;;3.10;2.50;;;16.80;56.20;17.30;100365.00;;;;5039016;28;20189;-46
2024/01/14 10:30:35;;;;;;;2.50;2.30;;;16.90;56.10;17.40;100359.00;;;;5040538;28;20186;-46
2024/01/14 10:33:03;;;;;;;2.70;2.50;;;17.00;55.80;17.40;100357.00;;;;5072370;28;20197;-46
2024/01/14 10:35:29;;;;;;;2.60;2.30;;;17.00;55.80;17.50;100364.00;;;;5070773;28;20723;-46
2024/01/14 10:37:55;;;;;;;2.70;2.50;;;17.10;55.80;17.60;100359.00;;;;5071171;28;20183;-51
2024/01/14 10:40:21;;;;;;;2.40;2.20;;;17.20;55.80;17.60;100355.00;;;;5070944;28;20221;-46
2024/01/14 10:42:46;;;;;;;2.37;2.20;;;17.20;55.70;17.70;100344.00;;;;5047235;28;20180;-46